Time;durP1;ratioP1;P1;durP2;ratioP2;P2;SDS_P1;SDS_P2;PMS_P1;PMS_P2;Temp;Humidity;BMP_temperature;BMP_pressure;BME280_temperature;BME280_humidity;BME280_pressure;Samples;Min_cycle;Max_cycle;Signal;HPM_P1;HPM_P2
2021/04/06 00:00:59;;;;;;;6.38;1.55;;;4.40;99.90;;;;;;5066743;28;20175;-79
2021/04/06 00:03:28;;;;;;;4.15;1.77;;;4.40;99.90;;;;;;5073231;28;20564;-79
2021/04/06 00:06:02;;;;;;;5.20;1.70;;;4.40;99.90;;;;;;5073504;28;20171;-79
2021/04/06 00:08:30;;;;;;;8.43;1.92;;;4.50;99.90;;;;;;5055109;28;20223;-79
2021/04/06 00:11:01;;;;;;;5.43;1.70;;;4.50;99.90;;;;;;5072727;28;20531;-79
2021/04/06 00:13:30;;;;;;;3.80;1.67;;;4.50;99.90;;;;;;5072172;28;20157;-79
2021/04/06 00:15:56;;;;;;;5.10;2.00;;;4.50;99.90;;;;;;5072061;28;20211;-79
2021/04/06 00:18:31;;;;;;;6.70;1.95;;;4.60;99.90;;;;;;5072830;28;20559;-79
2021/04/06 00:21:07;;;;;;;5.50;1.52;;;4.60;99.90;;;;;;5076707;28;20168;-78
2021/04/06 00:23:37;;;;;;;3.13;1.25;;;4.60;99.90;;;;;;5073375;28;20249;-79
2021/04/06 00:26:14;;;;;;;5.75;1.52;;;4.60;99.90;;;;;;5075485;28;20164;-79
2021/04/06 00:28:42;;;;;;;4.82;1.25;;;4.60;99.90;;;;;;5075871;28;20196;-79
2021/04/06 00:31:19;;;;;;;7.38;1.80;;;4.70;99.90;;;;;;5073090;28;20171;-79
2021/04/06 00:33:49;;;;;;;7.72;2.47;;;4.70;99.90;;;;;;5055130;28;20187;-79
2021/04/06 00:36:26;;;;;;;3.65;1.50;;;4.70;99.90;;;;;;5072664;28;20838;-79
2021/04/06 00:38:53;;;;;;;7.30;1.40;;;4.70;99.90;;;;;;5072927;28;20184;-77
2021/04/06 00:41:21;;;;;;;5.88;1.17;;;4.80;99.90;;;;;;5071468;28;20161;-80
2021/04/06 00:43:50;;;;;;;5.50;2.08;;;4.80;99.90;;;;;;5071501;28;20169;-79
2021/04/06 00:46:21;;;;;;;7.35;1.35;;;4.80;99.90;;;;;;5071112;28;20181;-78
2021/04/06 00:48:48;;;;;;;3.60;1.17;;;4.80;99.90;;;;;;5054329;28;20337;-79
2021/04/06 00:51:22;;;;;;;3.78;1.30;;;4.80;99.90;;;;;;5072603;28;20233;-78
2021/04/06 00:54:25;;;;;;;5.95;1.48;;;4.90;99.90;;;;;;5071342;28;20179;-78
2021/04/06 00:57:09;;;;;;;3.22;1.63;;;4.90;99.90;;;;;;5057488;28;20230;-78
2021/04/06 01:00:01;;;;;;;5.97;1.55;;;4.90;99.90;;;;;;5071473;28;20602;-79
2021/04/06 01:02:35;;;;;;;2.85;1.20;;;5.00;99.90;;;;;;5068251;28;20717;-78
2021/04/06 01:05:18;;;;;;;6.07;1.23;;;5.00;99.90;;;;;;5071056;28;20172;-79
2021/04/06 01:08:00;;;;;;;4.18;2.28;;;5.00;99.90;;;;;;5071886;28;20168;-79
2021/04/06 01:10:52;;;;;;;4.60;1.10;;;5.10;99.90;;;;;;5071206;28;20566;-79
2021/04/06 01:13:27;;;;;;;5.18;1.42;;;5.10;99.90;;;;;;5054744;28;20172;-79
2021/04/06 01:15:58;;;;;;;5.43;1.45;;;5.10;99.90;;;;;;5071075;28;20194;-79
2021/04/06 01:18:27;;;;;;;6.00;2.05;;;5.10;99.90;;;;;;5070223;28;20188;-80
2021/04/06 01:21:10;;;;;;;3.00;2.22;;;5.10;99.90;;;;;;5054855;28;20165;-80
2021/04/06 01:23:45;;;;;;;4.97;1.80;;;5.10;99.90;;;;;;5072063;28;20243;-79
2021/04/06 01:26:12;;;;;;;7.15;1.77;;;5.20;99.90;;;;;;5054610;28;20179;-79
2021/04/06 01:28:38;;;;;;;8.65;1.90;;;5.20;99.90;;;;;;5074362;28;20199;-79
2021/04/06 01:31:06;;;;;;;7.07;2.20;;;5.20;99.90;;;;;;5066652;28;20172;-77
2021/04/06 01:33:36;;;;;;;6.85;1.75;;;5.20;99.90;;;;;;5062269;28;20619;-79
2021/04/06 01:36:06;;;;;;;7.88;2.60;;;5.20;99.90;;;;;;5080101;28;20207;-78
2021/04/06 01:38:38;;;;;;;6.05;2.22;;;5.20;99.90;;;;;;5069201;28;20228;-77
2021/04/06 01:41:10;;;;;;;6.63;2.28;;;5.30;99.90;;;;;;5058344;28;20169;-79
2021/04/06 01:43:39;;;;;;;5.32;1.80;;;5.20;99.90;;;;;;5061877;28;20169;-79
2021/04/06 01:46:16;;;;;;;5.72;2.38;;;5.30;99.90;;;;;;5034006;28;20184;-79
2021/04/06 01:48:46;;;;;;;5.38;2.05;;;5.30;99.90;;;;;;5070547;28;20196;-79
2021/04/06 01:51:19;;;;;;;6.10;2.20;;;5.30;99.90;;;;;;5054115;28;20173;-79
2021/04/06 01:53:45;;;;;;;10.05;2.28;;;5.30;99.90;;;;;;5070596;28;20221;-79
2021/04/06 01:56:14;;;;;;;6.63;1.73;;;5.30;99.90;;;;;;5062736;28;20200;-79
2021/04/06 01:58:47;;;;;;;5.00;2.35;;;5.30;99.90;;;;;;5069216;28;20614;-80
2021/04/06 02:03:50;;;;;;;9.93;2.17;;;5.30;99.90;;;;;;5070925;28;20590;-79
2021/04/06 02:06:19;;;;;;;7.38;2.72;;;5.30;99.90;;;;;;5062153;28;20181;-79
2021/04/06 02:09:15;;;;;;;8.30;2.75;;;5.30;99.90;;;;;;5052617;28;20568;-79
2021/04/06 02:11:45;;;;;;;6.10;2.67;;;5.30;99.90;;;;;;5068270;28;20655;-79
2021/04/06 02:14:23;;;;;;;6.20;1.42;;;5.30;99.90;;;;;;5064617;28;20185;-78
2021/04/06 02:17:01;;;;;;;6.47;2.33;;;5.20;99.90;;;;;;5066347;28;20208;-78
2021/04/06 02:19:36;;;;;;;8.52;2.42;;;5.30;99.90;;;;;;5066074;28;20193;-79
2021/04/06 02:22:11;;;;;;;6.50;2.53;;;5.30;99.90;;;;;;5064485;28;20189;-77
2021/04/06 02:24:40;;;;;;;9.10;1.88;;;5.20;99.90;;;;;;5058560;28;20533;-78
2021/04/06 02:27:31;;;;;;;7.30;1.63;;;5.30;99.90;;;;;;5064124;28;20173;-78
2021/04/06 02:30:08;;;;;;;5.90;2.10;;;5.20;99.90;;;;;;5049960;28;20189;-79
2021/04/06 02:32:35;;;;;;;11.70;2.22;;;5.20;99.90;;;;;;5070513;28;20194;-78
2021/04/06 02:35:07;;;;;;;3.95;1.60;;;5.20;99.90;;;;;;5061472;28;20177;-78
2021/04/06 02:37:38;;;;;;;6.95;1.35;;;5.20;99.90;;;;;;5061491;28;20246;-78
2021/04/06 02:40:12;;;;;;;9.25;2.13;;;5.20;99.90;;;;;;5042855;28;20216;-76
2021/04/06 02:42:42;;;;;;;4.60;1.77;;;5.20;99.90;;;;;;5067796;28;20171;-78
2021/04/06 02:45:09;;;;;;;4.22;1.42;;;5.10;99.90;;;;;;5053789;28;20188;-78
2021/04/06 02:47:39;;;;;;;8.63;1.73;;;5.20;99.90;;;;;;5062909;28;20188;-80
2021/04/06 02:50:11;;;;;;;3.65;1.58;;;5.20;99.90;;;;;;5058095;28;20258;-79
2021/04/06 02:52:40;;;;;;;2.35;1.30;;;5.10;99.90;;;;;;5065045;28;20177;-79
2021/04/06 02:55:08;;;;;;;6.20;1.92;;;5.10;99.90;;;;;;5073567;28;20176;-79
2021/04/06 02:57:39;;;;;;;8.90;2.33;;;5.10;99.90;;;;;;5074280;28;20192;-79
2021/04/06 03:00:05;;;;;;;6.88;2.33;;;5.10;99.90;;;;;;5056675;28;20242;-77
2021/04/06 03:02:41;;;;;;;6.78;2.15;;;5.10;99.90;;;;;;5056656;28;20172;-78
2021/04/06 03:05:33;;;;;;;6.97;2.75;;;5.10;99.90;;;;;;5057035;28;20194;-79
2021/04/06 03:08:00;;;;;;;2.92;1.55;;;5.00;99.90;;;;;;5076731;28;20187;-78
2021/04/06 03:11:17;;;;;;;7.28;2.20;;;5.00;99.90;;;;;;5075316;28;20251;-78
2021/04/06 03:13:44;;;;;;;6.38;1.95;;;5.00;99.90;;;;;;5062626;28;20199;-79
2021/04/06 03:16:11;;;;;;;4.55;2.22;;;4.90;99.90;;;;;;5072971;28;20176;-79
2021/04/06 03:18:39;;;;;;;6.38;2.00;;;4.90;99.90;;;;;;5073732;28;20640;-78
2021/04/06 03:21:18;;;;;;;6.72;1.75;;;4.80;99.90;;;;;;5074899;28;20180;-79
2021/04/06 03:24:05;;;;;;;6.53;2.22;;;4.80;99.90;;;;;;5050372;28;20168;-79
2021/04/06 03:26:41;;;;;;;3.80;2.00;;;4.70;99.90;;;;;;5069454;28;20227;-81
2021/04/06 03:33:20;;;;;;;6.47;2.35;;;4.60;99.90;;;;;;5064257;28;20201;-81
2021/04/06 03:36:10;;;;;;;4.97;2.67;;;4.60;99.90;;;;;;5091649;28;20685;-80
2021/04/06 03:38:52;;;;;;;;;;;;;;;;;;;;;
2021/04/06 03:41:27;;;;;;;6.93;2.58;;;4.60;99.90;;;;;;5070296;28;20208;-81
2021/04/06 03:44:13;;;;;;;8.45;2.67;;;4.60;99.90;;;;;;5058326;28;20164;-82
2021/04/06 03:47:02;;;;;;;8.50;2.25;;;4.60;99.90;;;;;;5053653;28;20169;-79
2021/04/06 03:49:52;;;;;;;6.95;2.33;;;4.60;99.90;;;;;;5057541;28;20188;-80
2021/04/06 03:52:24;;;;;;;3.10;1.70;;;4.60;99.90;;;;;;5045177;28;20176;-80
2021/04/06 03:54:54;;;;;;;3.58;1.60;;;4.60;99.90;;;;;;5049170;28;20181;-80
2021/04/06 03:57:47;;;;;;;5.22;1.70;;;4.60;99.90;;;;;;5058671;28;20551;-80
2021/04/06 04:00:17;;;;;;;3.42;1.45;;;4.50;99.90;;;;;;5057806;28;20543;-81
2021/04/06 04:02:45;;;;;;;2.90;1.42;;;4.50;99.90;;;;;;5058942;28;20176;-81
2021/04/06 04:05:37;;;;;;;5.38;1.55;;;4.50;99.90;;;;;;5059514;28;20533;-82
2021/04/06 04:08:11;;;;;;;7.10;1.95;;;4.40;99.90;;;;;;5069411;28;20545;-80
2021/04/06 04:11:10;;;;;;;4.50;2.30;;;4.40;99.90;;;;;;5036771;28;20189;-84
2021/04/06 04:13:35;;;;;;;6.10;1.77;;;4.40;99.90;;;;;;5052539;28;20183;-83
2021/04/06 04:16:01;;;;;;;3.70;2.63;;;4.40;99.90;;;;;;5052165;28;20165;-84
2021/04/06 04:18:29;;;;;;;3.67;2.17;;;4.30;99.90;;;;;;5051646;28;20678;-83
2021/04/06 04:20:57;;;;;;;5.40;2.45;;;4.30;99.90;;;;;;5052326;28;20568;-81
2021/04/06 04:23:25;;;;;;;3.80;1.73;;;4.30;99.90;;;;;;5052078;28;20173;-82
2021/04/06 04:25:59;;;;;;;5.20;1.80;;;4.30;99.90;;;;;;5052269;28;20173;-82
2021/04/06 04:28:28;;;;;;;7.30;3.15;;;4.40;99.90;;;;;;5034884;28;20595;-80
2021/04/06 04:30:54;;;;;;;4.05;1.83;;;4.40;99.90;;;;;;5053071;28;20506;-80
2021/04/06 04:33:22;;;;;;;5.18;2.38;;;4.40;99.90;;;;;;5051750;28;20168;-80
2021/04/06 04:35:52;;;;;;;4.00;2.55;;;4.40;99.90;;;;;;5051961;28;20680;-81
2021/04/06 04:38:21;;;;;;;4.47;2.05;;;4.40;99.90;;;;;;5051316;28;20560;-81
2021/04/06 04:40:46;;;;;;;3.87;2.10;;;4.40;99.90;;;;;;5040368;28;20183;-81
2021/04/06 04:43:13;;;;;;;5.07;1.80;;;4.50;99.90;;;;;;5051788;28;20559;-81
2021/04/06 04:45:40;;;;;;;11.00;4.03;;;4.50;99.90;;;;;;5051577;28;20165;-82
2021/04/06 04:48:06;;;;;;;4.68;2.38;;;4.40;99.90;;;;;;5052415;28;20169;-81
2021/04/06 04:50:33;;;;;;;5.90;2.05;;;4.40;99.90;;;;;;5051536;28;20165;-82
2021/04/06 04:53:02;;;;;;;9.30;3.00;;;4.40;99.90;;;;;;5034568;28;20184;-81
2021/04/06 04:55:27;;;;;;;5.15;1.50;;;4.40;99.90;;;;;;5051338;28;20176;-81
2021/04/06 04:57:53;;;;;;;7.83;1.90;;;4.40;99.90;;;;;;5052164;28;20188;-81
2021/04/06 05:00:20;;;;;;;4.07;1.37;;;4.40;99.90;;;;;;5034897;28;20963;-81
2021/04/06 05:02:46;;;;;;;7.38;2.17;;;4.30;99.90;;;;;;5051300;28;20576;-80
2021/04/06 05:05:14;;;;;;;8.07;1.67;;;4.30;99.90;;;;;;5034800;28;20510;-82
2021/04/06 05:07:40;;;;;;;9.57;1.95;;;4.30;99.90;;;;;;5052087;28;20564;-80
2021/04/06 05:10:08;;;;;;;4.28;1.30;;;4.20;99.90;;;;;;5051151;28;20208;-80
2021/04/06 05:12:37;;;;;;;5.80;1.10;;;4.20;99.90;;;;;;5051392;28;20181;-80
2021/04/06 05:15:05;;;;;;;6.40;1.75;;;4.20;99.90;;;;;;5018154;28;20181;-81
2021/04/06 05:17:31;;;;;;;9.18;1.40;;;4.20;99.90;;;;;;5039291;28;20750;-81
2021/04/06 05:19:56;;;;;;;6.73;1.30;;;4.20;99.90;;;;;;5052338;28;20177;-81
2021/04/06 05:22:22;;;;;;;4.10;1.83;;;4.30;99.90;;;;;;5052133;28;21365;-81
2021/04/06 05:24:48;;;;;;;6.73;1.57;;;4.30;99.90;;;;;;5067370;28;20169;-81
2021/04/06 05:27:15;;;;;;;4.15;1.00;;;4.30;99.90;;;;;;5051506;28;20969;-82
2021/04/06 05:29:41;;;;;;;6.47;1.40;;;4.40;99.90;;;;;;5050550;28;20193;-81
2021/04/06 05:32:06;;;;;;;4.33;1.73;;;4.40;99.90;;;;;;5051936;28;20506;-82
2021/04/06 05:34:33;;;;;;;4.93;1.80;;;4.40;99.90;;;;;;5051982;28;20595;-81
2021/04/06 05:36:59;;;;;;;5.65;2.05;;;4.40;99.90;;;;;;5051243;28;20606;-81
2021/04/06 05:39:24;;;;;;;8.47;1.70;;;4.50;99.90;;;;;;5050480;28;20571;-81
2021/04/06 05:41:51;;;;;;;8.03;1.83;;;4.50;99.90;;;;;;5051842;28;20900;-82
2021/04/06 05:44:17;;;;;;;2.85;1.40;;;4.50;99.90;;;;;;5050453;28;20181;-80
2021/04/06 05:46:49;;;;;;;5.55;1.60;;;4.50;99.90;;;;;;5033724;28;20542;-81
2021/04/06 05:49:20;;;;;;;5.05;1.60;;;4.60;99.90;;;;;;5050412;28;20258;-81
2021/04/06 05:51:45;;;;;;;7.13;2.20;;;4.60;99.90;;;;;;5033940;28;20180;-80
2021/04/06 05:54:13;;;;;;;8.00;2.17;;;4.60;99.90;;;;;;5055367;28;20173;-82
2021/04/06 05:56:39;;;;;;;3.78;1.23;;;4.70;99.90;;;;;;5051301;28;20201;-80
2021/04/06 05:59:06;;;;;;;12.75;2.50;;;4.70;99.90;;;;;;5051495;28;20529;-81
2021/04/06 06:01:36;;;;;;;4.60;1.30;;;4.80;99.90;;;;;;5033862;28;20165;-82
2021/04/06 06:04:17;;;;;;;4.32;1.30;;;4.80;99.90;;;;;;5050480;28;20180;-81
2021/04/06 06:06:44;;;;;;;3.20;1.52;;;4.80;99.90;;;;;;5051338;28;20248;-80
2021/04/06 06:09:11;;;;;;;3.13;1.23;;;4.90;99.90;;;;;;5053848;28;20595;-81
2021/04/06 06:11:59;;;;;;;3.80;1.40;;;5.00;99.90;;;;;;5040125;28;20185;-82
2021/04/06 06:14:39;;;;;;;4.30;1.40;;;5.00;99.90;;;;;;5069779;28;20183;-82
2021/04/06 06:17:20;;;;;;;5.28;1.65;;;5.10;99.90;;;;;;5056412;28;20200;-81
2021/04/06 06:19:49;;;;;;;4.13;1.63;;;5.10;99.90;;;;;;5048671;28;20659;-81
2021/04/06 06:22:23;;;;;;;7.18;2.15;;;5.20;99.90;;;;;;5058942;28;20701;-80
2021/04/06 06:24:51;;;;;;;5.03;2.40;;;5.20;99.90;;;;;;5055383;28;20172;-79
2021/04/06 06:27:32;;;;;;;3.83;1.30;;;5.20;99.90;;;;;;5054939;28;20169;-79
2021/04/06 06:30:25;;;;;;;4.30;1.65;;;5.30;99.90;;;;;;5055271;28;20655;-79
2021/04/06 06:33:24;;;;;;;6.22;2.22;;;5.40;99.90;;;;;;5054942;28;20226;-80
2021/04/06 06:35:58;;;;;;;5.53;1.60;;;5.50;99.90;;;;;;5054072;28;20179;-80
2021/04/06 06:38:29;;;;;;;3.60;1.33;;;5.60;99.90;;;;;;5065633;28;20200;-80
2021/04/06 06:41:19;;;;;;;4.82;1.17;;;5.60;99.90;;;;;;5075448;28;20164;-80
2021/04/06 06:43:53;;;;;;;8.48;1.10;;;5.70;99.90;;;;;;5074614;28;20541;-79
2021/04/06 06:46:31;;;;;;;2.85;1.30;;;5.70;99.90;;;;;;5073371;28;20176;-80
2021/04/06 06:48:59;;;;;;;5.00;1.23;;;5.70;99.90;;;;;;5074618;28;20192;-79
2021/04/06 06:51:29;;;;;;;5.05;1.70;;;5.80;99.90;;;;;;5056990;28;20172;-78
2021/04/06 06:53:56;;;;;;;3.25;1.10;;;5.80;99.90;;;;;;5073398;28;20633;-79
2021/04/06 06:56:33;;;;;;;3.83;1.52;;;5.90;99.90;;;;;;5074222;28;20188;-79
2021/04/06 06:58:59;;;;;;;2.97;1.80;;;6.00;99.90;;;;;;5056005;28;20199;-79
2021/04/06 07:01:28;;;;;;;5.22;1.75;;;6.20;99.90;;;;;;5073104;28;20203;-79
2021/04/06 07:04:12;;;;;;;4.43;1.30;;;6.50;99.90;;;;;;5074483;28;20169;-80
2021/04/06 07:06:41;;;;;;;6.53;1.52;;;6.60;99.90;;;;;;5074161;28;20172;-79
2021/04/06 07:09:28;;;;;;;7.05;2.15;;;6.70;99.90;;;;;;5059324;28;20208;-80
2021/04/06 07:11:59;;;;;;;8.25;2.72;;;6.80;99.90;;;;;;5074487;28;20172;-79
2021/04/06 07:14:26;;;;;;;3.60;1.58;;;6.90;99.90;;;;;;5056225;28;20183;-77
2021/04/06 07:16:57;;;;;;;6.35;2.55;;;7.00;99.90;;;;;;5073017;28;20203;-79
2021/04/06 07:19:23;;;;;;;11.57;2.70;;;7.10;99.90;;;;;;5076201;28;20184;-80
2021/04/06 07:21:53;;;;;;;7.93;2.53;;;7.80;99.90;;;;;;5076903;28;20163;-83
2021/04/06 07:24:23;;;;;;;8.85;2.47;;;8.70;99.90;;;;;;5096735;28;20199;-79
2021/04/06 07:26:50;;;;;;;7.43;2.55;;;9.70;99.90;;;;;;5069576;28;20175;-77
2021/04/06 07:29:18;;;;;;;4.95;2.00;;;10.70;99.90;;;;;;5074764;28;20184;-77
2021/04/06 07:31:44;;;;;;;3.97;1.73;;;11.60;99.90;;;;;;5074693;28;20175;-76
2021/04/06 07:34:11;;;;;;;6.40;2.13;;;12.10;99.90;;;;;;5074606;28;20532;-77
2021/04/06 07:36:38;;;;;;;6.70;2.33;;;12.20;99.90;;;;;;5055852;28;20200;-77
2021/04/06 07:39:09;;;;;;;5.13;1.77;;;12.10;99.90;;;;;;5073770;28;20176;-77
2021/04/06 07:41:47;;;;;;;5.78;1.75;;;11.90;99.90;;;;;;5072193;28;20176;-76
2021/04/06 07:44:14;;;;;;;3.65;1.20;;;11.60;99.50;;;;;;5073727;28;20178;-76
2021/04/06 07:46:46;;;;;;;6.63;1.60;;;11.90;99.90;;;;;;5073536;28;20178;-77
2021/04/06 07:49:33;;;;;;;5.15;1.30;;;12.30;99.90;;;;;;5073511;28;20224;-77
2021/04/06 07:52:05;;;;;;;6.05;1.67;;;12.60;99.20;;;;;;5074142;28;20168;-76
2021/04/06 07:54:31;;;;;;;5.20;1.42;;;13.00;99.90;;;;;;5072550;28;20187;-77
2021/04/06 07:56:59;;;;;;;3.20;1.20;;;13.50;99.90;;;;;;5071728;28;20200;-76
2021/04/06 07:59:24;;;;;;;4.53;2.10;;;13.70;98.30;;;;;;5055594;28;21331;-78
2021/04/06 08:01:50;;;;;;;4.43;1.57;;;13.30;92.90;;;;;;5072105;28;20161;-77
2021/04/06 08:04:24;;;;;;;5.33;1.53;;;13.00;93.20;;;;;;5073336;28;20161;-77
2021/04/06 08:06:54;;;;;;;4.45;1.75;;;12.60;93.20;;;;;;5072899;28;20208;-77
2021/04/06 08:09:33;;;;;;;7.32;1.58;;;12.30;93.60;;;;;;5071670;28;20207;-76
2021/04/06 08:12:19;;;;;;;5.70;2.70;;;12.00;93.30;;;;;;5055298;28;20172;-77
2021/04/06 08:14:44;;;;;;;5.05;1.88;;;11.80;93.30;;;;;;5073441;28;20183;-76
2021/04/06 08:17:28;;;;;;;7.00;2.40;;;11.70;94.40;;;;;;5073126;28;20199;-76
2021/04/06 08:20:25;;;;;;;6.20;2.83;;;12.20;94.30;;;;;;5055202;28;20785;-75
2021/04/06 08:22:58;;;;;;;6.80;2.22;;;12.50;92.10;;;;;;5055074;28;20172;-76
2021/04/06 08:25:29;;;;;;;4.33;2.17;;;13.20;94.00;;;;;;5072501;28;20172;-76
2021/04/06 08:28:00;;;;;;;4.00;2.10;;;14.00;94.50;;;;;;5072576;28;20570;-77
2021/04/06 08:30:27;;;;;;;5.37;1.73;;;14.70;94.50;;;;;;5072547;28;20944;-76
2021/04/06 08:32:59;;;;;;;5.50;2.87;;;15.50;94.90;;;;;;5072427;28;20573;-78
2021/04/06 08:35:55;;;;;;;4.37;1.60;;;15.80;91.00;;;;;;5055588;28;20998;-77
2021/04/06 08:38:24;;;;;;;5.33;1.70;;;15.70;88.70;;;;;;5072024;28;20990;-75
2021/04/06 08:40:58;;;;;;;8.80;3.45;;;15.40;88.80;;;;;;5071836;28;21352;-75
2021/04/06 08:43:38;;;;;;;3.50;2.13;;;15.30;89.10;;;;;;5068541;28;20173;-77
2021/04/06 08:46:07;;;;;;;7.28;2.58;;;15.30;88.90;;;;;;5065611;28;20669;-76
2021/04/06 08:48:51;;;;;;;10.40;6.20;;;15.00;87.50;;;;;;5071389;28;20738;-76
2021/04/06 08:51:23;;;;;;;6.45;4.50;;;14.10;78.80;;;;;;5071465;28;20545;-76
2021/04/06 08:53:55;;;;;;;6.35;2.80;;;13.80;82.00;;;;;;5053097;28;20169;-75
2021/04/06 08:56:24;;;;;;;4.40;2.75;;;13.60;82.30;;;;;;5051217;28;20165;-75
2021/04/06 08:58:51;;;;;;;7.13;2.40;;;13.50;82.70;;;;;;5051408;28;20196;-75
2021/04/06 09:01:19;;;;;;;4.05;2.92;;;13.30;83.10;;;;;;5051165;28;20165;-75
2021/04/06 09:03:45;;;;;;;5.18;3.05;;;13.20;82.00;;;;;;5051108;28;20216;-74
2021/04/06 09:06:12;;;;;;;3.00;2.03;;;13.10;83.50;;;;;;5060961;28;20169;-75
2021/04/06 09:08:54;;;;;;;6.30;2.03;;;13.00;82.00;;;;;;5058325;28;20215;-75
2021/04/06 09:11:23;;;;;;;3.88;1.73;;;13.10;84.20;;;;;;5037063;28;21219;-77
2021/04/06 09:13:53;;;;;;;3.55;1.85;;;13.10;80.90;;;;;;5070169;28;20569;-76
2021/04/06 09:16:23;;;;;;;4.90;2.47;;;13.30;82.50;;;;;;5053167;28;20176;-76
2021/04/06 09:18:57;;;;;;;3.05;1.98;;;13.40;82.00;;;;;;5060066;28;20196;-76
2021/04/06 09:21:31;;;;;;;3.80;1.50;;;13.60;84.70;;;;;;5070092;28;20263;-76
2021/04/06 09:24:00;;;;;;;3.50;2.08;;;13.90;84.50;;;;;;5046619;28;20539;-76
2021/04/06 09:26:27;;;;;;;3.42;1.70;;;13.90;82.30;;;;;;5070173;28;20487;-78
2021/04/06 09:29:12;;;;;;;2.20;1.90;;;13.80;80.30;;;;;;5070544;28;20184;-79
2021/04/06 09:31:46;;;;;;;2.10;1.60;;;14.00;82.50;;;;;;5071605;28;20222;-80
2021/04/06 09:34:22;;;;;;;3.00;2.00;;;14.60;87.40;;;;;;5070511;28;20575;-79
2021/04/06 09:37:09;;;;;;;2.85;1.25;;;15.10;86.70;;;;;;5074694;28;20620;-80
2021/04/06 09:39:37;;;;;;;2.92;2.10;;;15.00;79.50;;;;;;5049980;28;20192;-81
2021/04/06 09:42:09;;;;;;;3.00;1.90;;;14.80;80.00;;;;;;5050139;28;20172;-81
2021/04/06 09:44:40;;;;;;;2.23;1.30;;;14.90;82.10;;;;;;5051367;28;20169;-79
2021/04/06 09:47:16;;;;;;;4.50;2.03;;;15.40;84.60;;;;;;5049648;28;20572;-80
2021/04/06 09:49:45;;;;;;;3.40;1.80;;;15.40;80.10;;;;;;5049805;28;20599;-79
2021/04/06 09:52:15;;;;;;;3.20;2.17;;;15.50;80.80;;;;;;5050093;28;21201;-80
2021/04/06 09:54:51;;;;;;;2.67;1.67;;;16.00;80.70;;;;;;5050131;28;21166;-80
2021/04/06 09:57:18;;;;;;;4.77;1.60;;;16.40;80.50;;;;;;5049647;28;20626;-80
2021/04/06 09:59:51;;;;;;;3.40;1.90;;;16.70;78.70;;;;;;5033701;28;22013;-80
2021/04/06 10:02:20;;;;;;;5.03;1.80;;;16.50;74.70;;;;;;5033727;28;21002;-80
2021/04/06 10:04:48;;;;;;;2.60;1.43;;;16.30;73.30;;;;;;5052862;28;20578;-80
2021/04/06 10:07:18;;;;;;;2.87;1.50;;;16.30;74.50;;;;;;5054762;28;20623;-78
2021/04/06 10:09:50;;;;;;;4.70;1.20;;;16.70;75.00;;;;;;5060382;28;20618;-78
2021/04/06 10:13:18;;;;;;;2.77;1.10;;;16.80;74.00;;;;;;5068989;28;20579;-80
2021/04/06 10:15:43;;;;;;;2.53;1.37;;;16.90;73.80;;;;;;5049167;28;20765;-80
2021/04/06 10:18:16;;;;;;;3.00;1.20;;;17.00;73.00;;;;;;5050154;28;20615;-80
2021/04/06 10:20:47;;;;;;;5.83;2.10;;;17.20;70.20;;;;;;5055097;28;20576;-78
2021/04/06 10:23:15;;;;;;;5.67;1.10;;;16.90;67.60;;;;;;5066863;28;20955;-76
2021/04/06 10:25:43;;;;;;;2.87;1.60;;;16.70;66.50;;;;;;5070345;28;20610;-76
2021/04/06 10:28:22;;;;;;;4.63;1.87;;;16.30;65.70;;;;;;5052722;28;20575;-77
2021/04/06 10:30:50;;;;;;;2.93;1.50;;;16.30;66.50;;;;;;5070751;28;20570;-77
2021/04/06 10:33:24;;;;;;;4.00;1.33;;;16.00;66.50;;;;;;5069521;28;21125;-76
2021/04/06 10:35:59;;;;;;;3.13;1.40;;;15.70;65.90;;;;;;5069454;28;20574;-76
2021/04/06 10:38:34;;;;;;;3.50;1.33;;;15.10;62.60;;;;;;5069139;28;20827;-78
2021/04/06 10:41:12;;;;;;;6.07;1.10;;;14.40;60.60;;;;;;5072405;28;20204;-78
2021/04/06 10:43:41;;;;;;;2.40;1.20;;;13.60;61.40;;;;;;5070194;28;20226;-77
2021/04/06 10:46:09;;;;;;;2.45;1.23;;;12.80;61.70;;;;;;5069638;28;20605;-78
2021/04/06 10:48:38;;;;;;;5.80;1.55;;;12.10;62.70;;;;;;5070134;28;20526;-78
2021/04/06 10:51:18;;;;;;;1.50;0.77;;;11.80;67.00;;;;;;5069436;28;20218;-76
2021/04/06 10:53:53;;;;;;;1.90;0.70;;;11.90;71.40;;;;;;5069830;28;20275;-78
2021/04/06 10:56:24;;;;;;;1.30;0.60;;;12.20;74.70;;;;;;5072829;28;20171;-77
2021/04/06 10:58:56;;;;;;;3.33;0.63;;;12.60;76.70;;;;;;5074610;28;20184;-77
2021/04/06 11:01:27;;;;;;;1.80;0.70;;;12.90;78.00;;;;;;5073577;28;20165;-76
2021/04/06 11:03:58;;;;;;;3.93;0.80;;;13.30;79.50;;;;;;5074308;28;20591;-78
2021/04/06 11:06:32;;;;;;;1.30;0.70;;;13.80;80.90;;;;;;5087980;28;20589;-77
2021/04/06 11:09:00;;;;;;;3.00;0.83;;;14.20;80.30;;;;;;5074130;28;20637;-78
2021/04/06 11:11:34;;;;;;;1.80;0.70;;;14.70;80.90;;;;;;5072254;28;21153;-79
2021/04/06 11:14:08;;;;;;;2.90;0.80;;;15.00;80.60;;;;;;5072916;28;20591;-78
2021/04/06 11:16:36;;;;;;;1.50;0.73;;;15.40;79.00;;;;;;5089300;28;20684;-77
2021/04/06 11:19:10;;;;;;;2.67;0.90;;;15.60;77.10;;;;;;5072932;28;20607;-77
2021/04/06 11:21:39;;;;;;;3.30;0.90;;;15.60;74.90;;;;;;5073719;28;20598;-78
2021/04/06 11:24:09;;;;;;;2.33;1.17;;;15.50;72.20;;;;;;5072666;28;20653;-80
2021/04/06 11:26:36;;;;;;;2.67;1.10;;;15.30;70.20;;;;;;5072036;28;20239;-77
2021/04/06 11:29:04;;;;;;;2.40;1.08;;;14.90;67.60;;;;;;5038949;28;20303;-77
2021/04/06 11:31:30;;;;;;;2.35;1.10;;;14.40;66.20;;;;;;5055963;28;20176;-78
2021/04/06 11:33:56;;;;;;;2.15;1.00;;;13.80;65.10;;;;;;5073731;28;20169;-78
2021/04/06 11:36:22;;;;;;;4.50;1.93;;;13.10;64.30;;;;;;5072781;28;20196;-77
2021/04/06 11:38:48;;;;;;;2.37;0.87;;;12.50;64.90;;;;;;5073358;28;20191;-77
2021/04/06 11:41:17;;;;;;;2.78;1.00;;;12.00;65.00;;;;;;5037005;28;20587;-78
2021/04/06 11:43:43;;;;;;;2.13;0.85;;;11.50;65.60;;;;;;5052187;28;20177;-77
2021/04/06 11:46:09;;;;;;;4.83;1.70;;;11.20;66.50;;;;;;5052591;28;20252;-79
2021/04/06 11:48:34;;;;;;;2.45;1.10;;;10.90;67.50;;;;;;5051566;28;20621;-78
2021/04/06 11:51:00;;;;;;;3.03;1.13;;;10.70;68.20;;;;;;5053643;28;20251;-78
2021/04/06 11:53:26;;;;;;;3.00;1.23;;;10.50;68.30;;;;;;5035312;28;20664;-78
2021/04/06 11:55:52;;;;;;;3.80;1.27;;;10.20;68.70;;;;;;5055076;28;20572;-77
2021/04/06 11:58:18;;;;;;;3.00;1.10;;;9.90;70.30;;;;;;5072687;28;20176;-78
2021/04/06 12:00:44;;;;;;;1.77;0.97;;;9.50;70.80;;;;;;5073253;28;20566;-78
2021/04/06 12:03:10;;;;;;;1.93;0.70;;;9.10;71.50;;;;;;5055164;28;20636;-79
2021/04/06 12:05:49;;;;;;;1.00;0.63;;;8.70;72.10;;;;;;5067969;28;20615;-80
2021/04/06 12:08:15;;;;;;;2.27;0.80;;;8.20;72.80;;;;;;5051491;28;20745;-81
2021/04/06 12:10:43;;;;;;;1.60;0.70;;;7.40;81.80;;;;;;5052922;28;20693;-80
2021/04/06 12:13:09;;;;;;;1.40;0.60;;;7.30;80.30;;;;;;5052534;28;20602;-81
2021/04/06 12:15:34;;;;;;;1.17;0.60;;;7.10;80.30;;;;;;5052840;28;20180;-80
2021/04/06 12:18:00;;;;;;;1.30;1.13;;;7.00;81.70;;;;;;5052453;28;20165;-79
2021/04/06 12:20:26;;;;;;;1.73;0.70;;;6.90;82.10;;;;;;5052893;28;20180;-80
2021/04/06 12:22:52;;;;;;;2.30;0.67;;;6.80;82.70;;;;;;5053276;28;20520;-79
2021/04/06 12:25:18;;;;;;;1.47;0.80;;;6.90;83.90;;;;;;5052899;28;20559;-82
2021/04/06 12:27:46;;;;;;;1.60;0.60;;;7.00;85.50;;;;;;5052484;28;20607;-82
2021/04/06 12:30:12;;;;;;;2.83;0.90;;;7.10;87.10;;;;;;5066926;28;20617;-82
2021/04/06 12:32:39;;;;;;;1.80;0.75;;;7.30;89.80;;;;;;5072367;28;20625;-81
2021/04/06 12:35:08;;;;;;;2.70;0.90;;;7.70;91.40;;;;;;5073749;28;20251;-82
2021/04/06 12:37:34;;;;;;;2.90;0.90;;;8.10;92.60;;;;;;5072360;28;21317;-80
2021/04/06 12:40:00;;;;;;;3.40;1.65;;;8.40;93.50;;;;;;5073272;28;20196;-79
2021/04/06 12:42:27;;;;;;;2.45;1.23;;;8.80;94.00;;;;;;5059418;28;20182;-80
2021/04/06 12:44:53;;;;;;;2.92;1.15;;;9.10;94.80;;;;;;5073228;28;20168;-79
2021/04/06 12:47:23;;;;;;;2.78;1.70;;;9.40;94.50;;;;;;5071741;28;20200;-80
2021/04/06 12:49:49;;;;;;;2.92;1.40;;;9.50;93.40;;;;;;5072006;28;20321;-79
2021/04/06 12:52:17;;;;;;;3.00;1.30;;;9.60;92.50;;;;;;5071594;28;20264;-80
2021/04/06 12:54:42;;;;;;;3.92;1.40;;;9.60;91.80;;;;;;5072496;28;20175;-78
2021/04/06 12:57:08;;;;;;;3.43;1.53;;;9.60;91.40;;;;;;5057092;28;20524;-80
2021/04/06 12:59:34;;;;;;;2.85;1.10;;;9.60;91.10;;;;;;5071708;28;20586;-79
2021/04/06 13:02:00;;;;;;;5.30;2.10;;;9.50;90.70;;;;;;5054307;28;20178;-80
2021/04/06 13:04:26;;;;;;;4.47;1.83;;;9.40;90.10;;;;;;5070813;28;20662;-79
2021/04/06 13:06:54;;;;;;;3.87;2.27;;;9.30;89.70;;;;;;5071778;28;20286;-79
2021/04/06 13:09:20;;;;;;;6.20;2.70;;;9.10;88.60;;;;;;5054067;28;20261;-80
2021/04/06 13:11:45;;;;;;;3.50;2.00;;;9.00;89.00;;;;;;5071142;28;20253;-80
2021/04/06 13:14:11;;;;;;;6.10;1.80;;;8.90;89.80;;;;;;5067096;28;20184;-80
2021/04/06 13:16:37;;;;;;;3.23;1.57;;;8.90;89.20;;;;;;5052094;28;20163;-81
2021/04/06 13:19:06;;;;;;;2.73;1.20;;;9.00;88.20;;;;;;5053032;28;20184;-80
2021/04/06 13:21:32;;;;;;;2.10;1.10;;;8.90;87.50;;;;;;5061694;28;20805;-80
2021/04/06 13:23:59;;;;;;;2.37;1.47;;;8.80;85.90;;;;;;5072000;28;20173;-82
2021/04/06 13:26:28;;;;;;;2.60;1.40;;;8.80;84.80;;;;;;5071773;28;21125;-80